createdAt,value
2018-03-31T00:00:16.741Z,1002.25
2018-03-31T00:01:16.743Z,1002.27
2018-03-31T00:02:16.760Z,1002.29
2018-03-31T00:03:16.799Z,1002.28
2018-03-31T00:04:16.762Z,1002.31
2018-03-31T00:05:16.746Z,1002.35
2018-03-31T00:06:16.753Z,1002.33
2018-03-31T00:07:16.744Z,1002.34
2018-03-31T00:08:16.740Z,1002.39
2018-03-31T00:09:16.745Z,1002.37
2018-03-31T00:10:16.732Z,1002.36
2018-03-31T00:11:16.727Z,1002.41
2018-03-31T00:12:16.745Z,1002.37
2018-03-31T00:13:16.735Z,1002.42
2018-03-31T00:14:16.734Z,1002.45
2018-03-31T00:15:16.742Z,1002.45
2018-03-31T00:16:23.931Z,1002.48
2018-03-31T00:17:16.734Z,1002.53
2018-03-31T00:18:16.727Z,1002.54
2018-03-31T00:19:16.734Z,1002.57
2018-03-31T00:20:16.730Z,1002.55
2018-03-31T00:21:16.777Z,1002.62
2018-03-31T00:22:16.741Z,1002.66
2018-03-31T00:23:16.728Z,1002.67
2018-03-31T00:24:16.734Z,1002.68
2018-03-31T00:25:16.724Z,1002.74
2018-03-31T00:26:16.747Z,1002.73
2018-03-31T00:27:16.727Z,1002.73
2018-03-31T00:28:16.725Z,1002.67
2018-03-31T00:29:16.724Z,1002.6
2018-03-31T00:30:16.718Z,1002.59
2018-03-31T00:31:16.723Z,1002.47
2018-03-31T00:32:16.721Z,1002.43
2018-03-31T00:33:16.730Z,1002.43
2018-03-31T00:34:16.729Z,1002.41
2018-03-31T00:35:16.739Z,1002.39
2018-03-31T00:36:16.716Z,1002.39
2018-03-31T00:37:16.732Z,1002.38
2018-03-31T00:38:16.747Z,1002.37
2018-03-31T00:39:16.713Z,1002.39
2018-03-31T00:40:16.714Z,1002.48
2018-03-31T00:41:16.713Z,1002.47
2018-03-31T00:42:16.745Z,1002.46
2018-03-31T00:43:16.717Z,1002.48
2018-03-31T00:44:16.719Z,1002.51
2018-03-31T00:45:16.717Z,1002.46
2018-03-31T00:46:16.714Z,1002.45
2018-03-31T00:47:16.770Z,1002.42
2018-03-31T00:48:16.715Z,1002.44
2018-03-31T00:49:16.738Z,1002.47
2018-03-31T00:50:16.719Z,1002.46
2018-03-31T00:51:16.702Z,1002.42
2018-03-31T00:52:16.712Z,1002.39
2018-03-31T00:53:16.759Z,1002.41
2018-03-31T00:54:16.721Z,1002.4
2018-03-31T00:55:16.712Z,1002.41
2018-03-31T00:56:16.720Z,1002.39
2018-03-31T00:57:16.700Z,1002.44
2018-03-31T00:58:16.729Z,1002.46
2018-03-31T00:59:16.710Z,1002.47
2018-03-31T01:00:16.704Z,1002.5
2018-03-31T01:01:16.711Z,1002.47
2018-03-31T01:02:16.705Z,1002.48
2018-03-31T01:03:16.720Z,1002.48
2018-03-31T01:04:16.717Z,1002.51
2018-03-31T01:05:16.699Z,1002.49
2018-03-31T01:06:16.750Z,1002.48
2018-03-31T01:07:16.758Z,1002.48
2018-03-31T01:08:16.720Z,1002.53
2018-03-31T01:09:16.704Z,1002.57
2018-03-31T01:10:16.701Z,1002.58
2018-03-31T01:11:16.705Z,1002.6
2018-03-31T01:12:16.703Z,1002.6
2018-03-31T01:13:16.734Z,1002.64
2018-03-31T01:14:16.703Z,1002.62
2018-03-31T01:15:16.705Z,1002.65
2018-03-31T01:16:16.702Z,1002.6
2018-03-31T01:17:16.698Z,1002.58
2018-03-31T01:18:16.742Z,1002.57
2018-03-31T01:19:16.691Z,1002.58
2018-03-31T01:20:16.695Z,1002.56
2018-03-31T01:21:16.698Z,1002.58
2018-03-31T01:22:16.698Z,1002.56
2018-03-31T01:23:16.701Z,1002.59
2018-03-31T01:24:16.705Z,1002.57
2018-03-31T01:25:16.688Z,1002.62
2018-03-31T01:26:16.688Z,1002.57
2018-03-31T01:27:16.686Z,1002.59
2018-03-31T01:28:16.684Z,1002.61
2018-03-31T01:29:16.691Z,1002.6
2018-03-31T01:30:16.703Z,1002.57
2018-03-31T01:31:16.694Z,1002.53
2018-03-31T01:32:16.687Z,1002.57
2018-03-31T01:33:16.675Z,1002.6
2018-03-31T01:34:16.683Z,1002.61
2018-03-31T01:35:16.684Z,1002.59
2018-03-31T01:36:16.680Z,1002.64
2018-03-31T01:37:16.688Z,1002.62
2018-03-31T01:38:16.686Z,1002.62
2018-03-31T01:39:16.678Z,1002.57
2018-03-31T01:40:16.679Z,1002.51
2018-03-31T01:41:16.676Z,1002.54
2018-03-31T01:42:16.694Z,1002.52
2018-03-31T01:43:16.691Z,1002.56
2018-03-31T01:44:16.713Z,1002.59
2018-03-31T01:45:16.691Z,1002.6
2018-03-31T01:46:16.679Z,1002.65
2018-03-31T01:47:16.679Z,1002.69
2018-03-31T01:48:16.681Z,1002.66
2018-03-31T01:49:16.801Z,1002.67
2018-03-31T01:50:16.676Z,1002.62
2018-03-31T01:51:16.700Z,1002.59
2018-03-31T01:52:16.668Z,1002.62
2018-03-31T01:53:16.673Z,1002.63
2018-03-31T01:54:16.699Z,1002.68
2018-03-31T01:55:16.674Z,1002.63
2018-03-31T01:56:16.679Z,1002.6
2018-03-31T01:57:16.675Z,1002.61
2018-03-31T01:58:16.677Z,1002.58
2018-03-31T01:59:16.675Z,1002.58
2018-03-31T02:00:16.673Z,1002.62
2018-03-31T02:01:16.669Z,1002.58
2018-03-31T02:02:16.677Z,1002.57
2018-03-31T02:03:16.666Z,1002.54
2018-03-31T02:04:16.693Z,1002.55
2018-03-31T02:05:16.663Z,1002.58
2018-03-31T02:06:16.660Z,1002.52
2018-03-31T02:07:16.669Z,1002.58
2018-03-31T02:08:16.666Z,1002.6
2018-03-31T02:09:16.666Z,1002.54
2018-03-31T02:10:16.672Z,1002.54
2018-03-31T02:11:16.666Z,1002.58
2018-03-31T02:12:16.668Z,1002.55
2018-03-31T02:13:16.667Z,1002.55
2018-03-31T02:14:16.665Z,1002.56
2018-03-31T02:15:16.670Z,1002.57
2018-03-31T02:16:16.677Z,1002.54
2018-03-31T02:17:16.743Z,1002.59
2018-03-31T02:18:16.657Z,1002.56
2018-03-31T02:19:16.650Z,1002.58
2018-03-31T02:20:16.828Z,1002.62
2018-03-31T02:21:16.676Z,1002.61
2018-03-31T02:22:16.678Z,1002.56
2018-03-31T02:23:16.661Z,1002.58
2018-03-31T02:24:16.668Z,1002.54
2018-03-31T02:25:16.655Z,1002.54
2018-03-31T02:26:16.655Z,1002.52
2018-03-31T02:27:16.651Z,1002.54
2018-03-31T02:28:16.654Z,1002.47
2018-03-31T02:29:16.649Z,1002.5
2018-03-31T02:30:16.668Z,1002.54
2018-03-31T02:31:16.646Z,1002.55
2018-03-31T02:32:16.647Z,1002.51
2018-03-31T02:33:16.651Z,1002.49
2018-03-31T02:34:16.644Z,1002.49
2018-03-31T02:35:16.658Z,1002.48
2018-03-31T02:36:16.660Z,1002.42
2018-03-31T02:37:16.664Z,1002.46
2018-03-31T02:38:16.662Z,1002.4
2018-03-31T02:39:16.668Z,1002.39
2018-03-31T02:40:16.650Z,1002.37
2018-03-31T02:41:16.647Z,1002.34
2018-03-31T02:42:16.648Z,1002.32
2018-03-31T02:43:16.644Z,1002.34
2018-03-31T02:44:16.635Z,1002.36
2018-03-31T02:45:16.640Z,1002.32
2018-03-31T02:46:16.665Z,1002.35
2018-03-31T02:47:16.632Z,1002.34
2018-03-31T02:48:16.639Z,1002.34
2018-03-31T02:49:16.632Z,1002.33
2018-03-31T02:50:16.642Z,1002.3
2018-03-31T02:51:16.718Z,1002.27
2018-03-31T02:52:16.647Z,1002.26
2018-03-31T02:53:16.653Z,1002.26
2018-03-31T02:54:16.640Z,1002.21
2018-03-31T02:55:16.647Z,1002.19
2018-03-31T02:56:16.646Z,1002.2
2018-03-31T02:57:16.642Z,1002.24
2018-03-31T02:58:16.627Z,1002.22
2018-03-31T02:59:16.628Z,1002.22
2018-03-31T03:00:16.638Z,1002.2
2018-03-31T03:01:16.628Z,1002.17
2018-03-31T03:02:16.637Z,1002.16
2018-03-31T03:03:16.638Z,1002.18
2018-03-31T03:04:16.631Z,1002.11
2018-03-31T03:05:16.667Z,1002.12
2018-03-31T03:06:16.655Z,1002.12
2018-03-31T03:07:16.632Z,1002.11
2018-03-31T03:08:16.624Z,1002.11
2018-03-31T03:09:16.653Z,1002.08
2018-03-31T03:10:16.628Z,1002.06
2018-03-31T03:11:16.625Z,1002.06
2018-03-31T03:12:16.665Z,1002.05
2018-03-31T03:13:16.635Z,1002.02
2018-03-31T03:14:16.648Z,1002.01
2018-03-31T03:15:16.622Z,1002.06
2018-03-31T03:16:16.619Z,1002.03
2018-03-31T03:17:16.640Z,1002.03
2018-03-31T03:18:16.623Z,1002.05
2018-03-31T03:19:16.629Z,1002.06
2018-03-31T03:20:16.619Z,1002.02
2018-03-31T03:21:16.611Z,1002.06
2018-03-31T03:22:16.668Z,1002.04
2018-03-31T03:23:16.607Z,1001.99
2018-03-31T03:24:16.636Z,1002.01
2018-03-31T03:25:16.641Z,1002
2018-03-31T03:26:16.607Z,1001.98
2018-03-31T03:27:16.607Z,1001.97
2018-03-31T03:28:16.617Z,1001.96
2018-03-31T03:29:16.614Z,1001.95
2018-03-31T03:30:16.625Z,1001.94
2018-03-31T03:31:16.624Z,1001.95
2018-03-31T03:32:16.629Z,1001.96
2018-03-31T03:33:16.617Z,1001.97
2018-03-31T03:34:16.608Z,1001.96
2018-03-31T03:35:16.605Z,1001.94
2018-03-31T03:36:16.605Z,1001.95
2018-03-31T03:37:16.600Z,1001.96
2018-03-31T03:38:16.626Z,1001.96
2018-03-31T03:39:16.604Z,1001.95
2018-03-31T03:40:16.607Z,1001.96
2018-03-31T03:41:16.597Z,1002.01
2018-03-31T03:42:16.607Z,1001.96
2018-03-31T03:43:16.613Z,1002
2018-03-31T03:44:16.604Z,1002.01
2018-03-31T03:45:16.605Z,1001.99
2018-03-31T03:46:16.609Z,1002
2018-03-31T03:47:16.602Z,1001.97
2018-03-31T03:48:16.620Z,1001.96
2018-03-31T03:49:16.608Z,1001.96
2018-03-31T03:50:16.658Z,1001.93
2018-03-31T03:51:16.608Z,1001.99
2018-03-31T03:52:16.840Z,1001.95
2018-03-31T03:53:16.651Z,1001.99
2018-03-31T03:54:16.597Z,1002
2018-03-31T03:55:16.621Z,1002.02
2018-03-31T03:56:16.592Z,1002.05
2018-03-31T03:57:16.637Z,1002.02
2018-03-31T03:58:16.592Z,1002.04
2018-03-31T03:59:16.604Z,1002.08
2018-03-31T04:00:16.603Z,1002.07
2018-03-31T04:01:16.590Z,1002.07
2018-03-31T04:02:16.631Z,1002.07
2018-03-31T04:03:16.592Z,1002.1
2018-03-31T04:04:16.599Z,1002.1
2018-03-31T04:05:16.596Z,1002.1
2018-03-31T04:06:16.593Z,1002.12
2018-03-31T04:07:16.619Z,1002.06
2018-03-31T04:08:16.586Z,1002.07
2018-03-31T04:09:16.598Z,1002.06
2018-03-31T04:10:16.596Z,1002.07
2018-03-31T04:11:16.592Z,1002.05
2018-03-31T04:12:16.586Z,1002.08
2018-03-31T04:13:16.594Z,1002.08
2018-03-31T04:14:16.603Z,1002.12
2018-03-31T04:15:16.587Z,1002.09
2018-03-31T04:16:16.613Z,1002.11
2018-03-31T04:17:16.590Z,1002.17
2018-03-31T04:18:16.595Z,1002.14
2018-03-31T04:19:16.586Z,1002.14
2018-03-31T04:20:16.587Z,1002.16
2018-03-31T04:21:16.588Z,1002.21
2018-03-31T04:22:16.584Z,1002.21
2018-03-31T04:23:16.579Z,1002.17
2018-03-31T04:24:16.686Z,1002.19
2018-03-31T04:25:16.588Z,1002.27
2018-03-31T04:26:16.593Z,1002.2
2018-03-31T04:27:16.589Z,1002.22
2018-03-31T04:28:16.593Z,1002.24
2018-03-31T04:29:16.581Z,1002.21
2018-03-31T04:30:16.589Z,1002.23
2018-03-31T04:31:16.574Z,1002.24
2018-03-31T04:32:16.577Z,1002.23
2018-03-31T04:33:16.606Z,1002.22
2018-03-31T04:34:16.589Z,1002.23
2018-03-31T04:35:16.575Z,1002.21
2018-03-31T04:36:16.574Z,1002.24
2018-03-31T04:37:16.580Z,1002.24
2018-03-31T04:38:16.577Z,1002.22
2018-03-31T04:39:16.596Z,1002.25
2018-03-31T04:40:16.608Z,1002.24
2018-03-31T04:41:16.580Z,1002.26
2018-03-31T04:42:16.563Z,1002.29
2018-03-31T04:43:16.580Z,1002.27
2018-03-31T04:44:16.569Z,1002.3
2018-03-31T04:45:16.587Z,1002.29
2018-03-31T04:46:16.623Z,1002.31
2018-03-31T04:47:16.591Z,1002.35
2018-03-31T04:48:16.560Z,1002.34
2018-03-31T04:49:16.559Z,1002.37
2018-03-31T04:50:16.924Z,1002.35
2018-03-31T04:51:16.582Z,1002.34
2018-03-31T04:52:16.570Z,1002.35
2018-03-31T04:53:16.559Z,1002.38
2018-03-31T04:54:16.562Z,1002.32
2018-03-31T04:55:16.657Z,1002.29
2018-03-31T04:56:16.560Z,1002.29
2018-03-31T04:57:16.570Z,1002.26
2018-03-31T04:58:16.620Z,1002.28
2018-03-31T04:59:16.554Z,1002.28
2018-03-31T05:00:16.600Z,1002.35
2018-03-31T05:01:16.556Z,1002.33
2018-03-31T05:02:16.664Z,1002.35
2018-03-31T05:03:16.556Z,1002.36
2018-03-31T05:04:16.578Z,1002.32
2018-03-31T05:05:16.558Z,1002.37
2018-03-31T05:06:16.561Z,1002.34
2018-03-31T05:07:16.943Z,1002.37
2018-03-31T05:08:16.548Z,1002.42
2018-03-31T05:09:16.549Z,1002.39
2018-03-31T05:10:16.550Z,1002.39
2018-03-31T05:11:16.562Z,1002.39
2018-03-31T05:12:16.575Z,1002.37
2018-03-31T05:13:16.554Z,1002.39
2018-03-31T05:14:16.563Z,1002.4
2018-03-31T05:15:16.552Z,1002.39
2018-03-31T05:16:16.548Z,1002.42
2018-03-31T05:17:16.548Z,1002.43
2018-03-31T05:18:16.582Z,1002.43
2018-03-31T05:19:16.553Z,1002.41
2018-03-31T05:20:16.553Z,1002.42
2018-03-31T05:21:16.541Z,1002.47
2018-03-31T05:22:16.554Z,1002.42
2018-03-31T05:23:16.618Z,1002.44
2018-03-31T05:24:16.556Z,1002.48
2018-03-31T05:25:16.534Z,1002.48
2018-03-31T05:26:16.599Z,1002.48
2018-03-31T05:27:16.536Z,1002.49
2018-03-31T05:28:16.527Z,1002.51
2018-03-31T05:29:16.553Z,1002.49
2018-03-31T05:30:16.545Z,1002.51
2018-03-31T05:31:16.536Z,1002.5
2018-03-31T05:32:16.550Z,1002.54
2018-03-31T05:33:16.531Z,1002.56
2018-03-31T05:34:16.542Z,1002.58
2018-03-31T05:35:16.539Z,1002.59
2018-03-31T05:36:16.531Z,1002.57
2018-03-31T05:37:16.534Z,1002.61
2018-03-31T05:38:16.537Z,1002.63
2018-03-31T05:39:16.525Z,1002.66
2018-03-31T05:40:16.529Z,1002.6
2018-03-31T05:41:16.532Z,1002.64
2018-03-31T05:42:16.547Z,1002.6
2018-03-31T05:43:16.527Z,1002.59
2018-03-31T05:44:16.537Z,1002.62
2018-03-31T05:45:16.538Z,1002.57
2018-03-31T05:46:16.563Z,1002.58
2018-03-31T05:47:16.534Z,1002.61
2018-03-31T05:48:16.522Z,1002.59
2018-03-31T05:49:16.557Z,1002.61
2018-03-31T05:50:16.525Z,1002.63
2018-03-31T05:51:16.540Z,1002.58
2018-03-31T05:52:16.540Z,1002.56
2018-03-31T05:53:16.528Z,1002.58
2018-03-31T05:54:16.540Z,1002.55
2018-03-31T05:55:16.551Z,1002.55
2018-03-31T05:56:16.538Z,1002.56
2018-03-31T05:57:16.702Z,1002.58
2018-03-31T05:58:16.519Z,1002.63
2018-03-31T05:59:16.514Z,1002.64
2018-03-31T06:00:16.526Z,1002.64
2018-03-31T06:01:16.518Z,1002.67
2018-03-31T06:02:16.535Z,1002.67
2018-03-31T06:03:16.533Z,1002.67
2018-03-31T06:04:16.512Z,1002.65
2018-03-31T06:05:16.519Z,1002.65
2018-03-31T06:06:16.514Z,1002.61
2018-03-31T06:07:16.527Z,1002.63
2018-03-31T06:08:16.559Z,1002.58
2018-03-31T06:09:16.511Z,1002.57
2018-03-31T06:10:16.510Z,1002.57
2018-03-31T06:11:16.533Z,1002.55
2018-03-31T06:12:16.514Z,1002.55
2018-03-31T06:13:16.526Z,1002.57
2018-03-31T06:14:16.518Z,1002.57
2018-03-31T06:15:16.508Z,1002.56
2018-03-31T06:16:16.507Z,1002.55
2018-03-31T06:17:16.521Z,1002.59
2018-03-31T06:18:16.507Z,1002.54
2018-03-31T06:19:16.529Z,1002.54
2018-03-31T06:20:16.533Z,1002.56
2018-03-31T06:21:16.507Z,1002.56
2018-03-31T06:22:16.497Z,1002.56
2018-03-31T06:23:16.505Z,1002.57
2018-03-31T06:24:16.502Z,1002.56
2018-03-31T06:25:16.506Z,1002.55
2018-03-31T06:26:16.509Z,1002.54
2018-03-31T06:27:16.507Z,1002.51
2018-03-31T06:28:16.545Z,1002.52
2018-03-31T06:29:16.511Z,1002.53
2018-03-31T06:30:16.498Z,1002.54
2018-03-31T06:31:16.503Z,1002.54
2018-03-31T06:32:16.501Z,1002.61
2018-03-31T06:33:16.514Z,1002.6
2018-03-31T06:34:16.499Z,1002.55
2018-03-31T06:35:16.494Z,1002.61
2018-03-31T06:36:16.498Z,1002.61
2018-03-31T06:37:16.498Z,1002.57
2018-03-31T06:38:16.488Z,1002.59
2018-03-31T06:39:16.497Z,1002.57
2018-03-31T06:40:16.496Z,1002.57
2018-03-31T06:41:16.496Z,1002.55
2018-03-31T06:42:16.512Z,1002.58
2018-03-31T06:43:16.508Z,1002.59
2018-03-31T06:44:16.497Z,1002.64
2018-03-31T06:45:16.499Z,1002.61
2018-03-31T06:46:16.497Z,1002.61
2018-03-31T06:47:16.504Z,1002.64
2018-03-31T06:48:16.486Z,1002.67
2018-03-31T06:49:16.486Z,1002.66
2018-03-31T06:50:16.507Z,1002.67
2018-03-31T06:51:16.500Z,1002.65
2018-03-31T06:52:16.490Z,1002.63
2018-03-31T06:53:16.485Z,1002.62
2018-03-31T06:54:16.482Z,1002.64
2018-03-31T06:55:16.488Z,1002.64
2018-03-31T06:56:16.491Z,1002.66
2018-03-31T06:57:16.482Z,1002.67
2018-03-31T06:58:16.597Z,1002.68
2018-03-31T06:59:16.561Z,1002.67
2018-03-31T07:00:16.480Z,1002.67
2018-03-31T07:01:16.475Z,1002.69
2018-03-31T07:02:16.474Z,1002.67
2018-03-31T07:03:16.479Z,1002.6
2018-03-31T07:04:16.531Z,1002.58
2018-03-31T07:05:16.484Z,1002.62
2018-03-31T07:06:16.609Z,1002.57
2018-03-31T07:07:16.478Z,1002.55
2018-03-31T07:08:16.479Z,1002.51
2018-03-31T07:09:16.497Z,1002.56
2018-03-31T07:10:16.472Z,1002.57
2018-03-31T07:11:16.506Z,1002.53
2018-03-31T07:12:16.494Z,1002.54
2018-03-31T07:13:16.492Z,1002.51
2018-03-31T07:14:16.484Z,1002.54
2018-03-31T07:15:16.466Z,1002.54
2018-03-31T07:16:16.471Z,1002.5
2018-03-31T07:17:16.478Z,1002.55
2018-03-31T07:18:16.462Z,1002.54
2018-03-31T07:19:16.476Z,1002.55
2018-03-31T07:20:16.471Z,1002.59
2018-03-31T07:21:16.476Z,1002.58
2018-03-31T07:22:16.598Z,1002.55
2018-03-31T07:23:16.469Z,1002.49
2018-03-31T07:24:16.470Z,1002.53
2018-03-31T07:27:20.490Z,1002.55
2018-03-31T07:28:16.473Z,1002.59
2018-03-31T07:29:16.493Z,1002.58
2018-03-31T07:30:16.561Z,1002.6
2018-03-31T07:31:16.481Z,1002.59
2018-03-31T07:32:16.469Z,1002.57
2018-03-31T07:33:16.467Z,1002.54
2018-03-31T07:34:16.466Z,1002.56
2018-03-31T07:35:16.467Z,1002.56
2018-03-31T07:36:16.492Z,1002.59
2018-03-31T07:37:16.461Z,1002.58
2018-03-31T07:38:16.521Z,1002.54
2018-03-31T07:39:16.469Z,1002.61
2018-03-31T07:40:16.473Z,1002.57
2018-03-31T07:41:16.482Z,1002.6
2018-03-31T07:42:16.462Z,1002.56
2018-03-31T07:43:16.467Z,1002.59
2018-03-31T07:44:16.462Z,1002.61
2018-03-31T07:45:16.535Z,1002.6
2018-03-31T07:46:16.455Z,1002.61
2018-03-31T07:47:16.460Z,1002.61
2018-03-31T07:48:16.468Z,1002.63
2018-03-31T07:49:16.456Z,1002.59
2018-03-31T07:50:16.471Z,1002.6
2018-03-31T07:51:16.451Z,1002.62
2018-03-31T07:52:16.494Z,1002.61
2018-03-31T07:53:16.463Z,1002.59
2018-03-31T07:54:16.464Z,1002.56
2018-03-31T07:55:16.468Z,1002.6
2018-03-31T07:56:16.454Z,1002.62
2018-03-31T07:57:16.458Z,1002.63
2018-03-31T07:58:16.456Z,1002.65
2018-03-31T07:59:16.450Z,1002.65
2018-03-31T08:00:16.457Z,1002.65
2018-03-31T08:01:17.514Z,1002.7
2018-03-31T08:02:16.551Z,1002.65
2018-03-31T08:03:16.460Z,1002.65
2018-03-31T08:04:16.447Z,1002.66
2018-03-31T08:05:16.446Z,1002.67
2018-03-31T08:06:16.448Z,1002.66
2018-03-31T08:07:16.463Z,1002.62
2018-03-31T08:08:16.453Z,1002.65
2018-03-31T08:09:16.444Z,1002.62
2018-03-31T08:10:16.450Z,1002.62
2018-03-31T08:11:16.449Z,1002.64
2018-03-31T08:12:16.437Z,1002.67
2018-03-31T08:13:16.452Z,1002.66
2018-03-31T08:14:16.470Z,1002.64
2018-03-31T08:15:16.491Z,1002.59
2018-03-31T08:16:16.454Z,1002.6
2018-03-31T08:17:16.437Z,1002.61
2018-03-31T08:18:16.437Z,1002.63
2018-03-31T08:19:16.445Z,1002.63
2018-03-31T08:20:16.443Z,1002.62
2018-03-31T08:21:16.460Z,1002.59
2018-03-31T08:22:16.463Z,1002.59
2018-03-31T08:23:16.441Z,1002.62
2018-03-31T08:24:16.445Z,1002.66
2018-03-31T08:25:16.435Z,1002.64
2018-03-31T08:26:16.435Z,1002.61
2018-03-31T08:27:16.437Z,1002.61
2018-03-31T08:28:16.435Z,1002.6
2018-03-31T08:29:16.430Z,1002.6
2018-03-31T08:30:16.507Z,1002.61
2018-03-31T08:31:16.447Z,1002.63
2018-03-31T08:32:16.429Z,1002.6
2018-03-31T08:33:16.690Z,1002.59
2018-03-31T08:34:16.437Z,1002.62
2018-03-31T08:35:18.151Z,1002.56
2018-03-31T08:36:16.437Z,1002.57
2018-03-31T08:37:16.427Z,1002.54
2018-03-31T08:38:16.435Z,1002.54
2018-03-31T08:39:16.420Z,1002.55
2018-03-31T08:40:16.852Z,1002.55
2018-03-31T08:41:17.034Z,1002.54
2018-03-31T08:42:16.419Z,1002.57
2018-03-31T08:43:16.425Z,1002.55
2018-03-31T08:44:16.455Z,1002.52
2018-03-31T08:45:16.424Z,1002.54
2018-03-31T08:46:16.423Z,1002.49
2018-03-31T08:47:16.577Z,1002.48
2018-03-31T08:48:16.437Z,1002.48
2018-03-31T08:49:16.415Z,1002.48
2018-03-31T08:50:16.414Z,1002.52
2018-03-31T08:51:16.492Z,1002.47
2018-03-31T08:52:16.445Z,1002.48
2018-03-31T08:53:16.417Z,1002.47
2018-03-31T08:54:16.421Z,1002.51
2018-03-31T08:55:16.421Z,1002.51
2018-03-31T08:56:16.454Z,1002.55
2018-03-31T08:57:16.424Z,1002.6
2018-03-31T08:58:16.407Z,1002.62
2018-03-31T08:59:16.421Z,1002.61
2018-03-31T09:00:17.495Z,1002.61
2018-03-31T09:01:16.435Z,1002.64
2018-03-31T09:02:16.405Z,1002.61
2018-03-31T09:03:16.408Z,1002.58
2018-03-31T09:04:17.127Z,1002.56
2018-03-31T09:05:16.554Z,1002.57
2018-03-31T09:06:16.702Z,1002.56
2018-03-31T09:07:16.403Z,1002.54
2018-03-31T09:08:16.410Z,1002.55
2018-03-31T09:09:16.525Z,1002.51
2018-03-31T09:10:16.416Z,1002.49
2018-03-31T09:11:16.428Z,1002.49
2018-03-31T09:12:16.404Z,1002.49
2018-03-31T09:13:16.404Z,1002.51
2018-03-31T09:14:16.413Z,1002.52
2018-03-31T09:15:16.483Z,1002.56
2018-03-31T09:16:16.433Z,1002.5
2018-03-31T09:17:16.398Z,1002.53
2018-03-31T09:18:16.400Z,1002.49
2018-03-31T09:19:16.408Z,1002.49
2018-03-31T09:20:16.405Z,1002.48
2018-03-31T09:21:16.400Z,1002.5
2018-03-31T09:22:16.401Z,1002.51
2018-03-31T09:23:16.416Z,1002.51
2018-03-31T09:24:16.406Z,1002.47
2018-03-31T09:25:16.399Z,1002.47
2018-03-31T09:26:16.451Z,1002.48
2018-03-31T09:27:16.504Z,1002.41
2018-03-31T09:28:16.503Z,1002.43
2018-03-31T09:29:16.398Z,1002.44
2018-03-31T09:30:16.433Z,1002.39
2018-03-31T09:31:16.402Z,1002.45
2018-03-31T09:32:16.392Z,1002.47
2018-03-31T09:33:16.396Z,1002.48
2018-03-31T09:34:16.387Z,1002.48
2018-03-31T09:35:16.448Z,1002.5
2018-03-31T09:36:16.391Z,1002.53
2018-03-31T09:37:16.419Z,1002.5
2018-03-31T09:38:16.419Z,1002.5
2018-03-31T09:39:16.382Z,1002.45
2018-03-31T09:40:16.396Z,1002.45
2018-03-31T09:41:16.386Z,1002.44
2018-03-31T09:42:16.392Z,1002.48
2018-03-31T09:43:16.410Z,1002.45
2018-03-31T09:44:16.390Z,1002.47
2018-03-31T09:45:16.392Z,1002.43
2018-03-31T09:46:16.390Z,1002.43
2018-03-31T09:47:16.394Z,1002.44
2018-03-31T09:48:16.389Z,1002.43
2018-03-31T09:49:16.392Z,1002.44
2018-03-31T09:50:16.380Z,1002.45
2018-03-31T09:51:16.744Z,1002.44
2018-03-31T09:52:16.381Z,1002.41
2018-03-31T09:53:16.381Z,1002.41
2018-03-31T09:54:16.482Z,1002.42
2018-03-31T09:55:16.384Z,1002.37
2018-03-31T09:56:16.384Z,1002.42
2018-03-31T09:57:16.383Z,1002.38
2018-03-31T09:58:16.379Z,1002.39
2018-03-31T09:59:16.385Z,1002.36
2018-03-31T10:00:16.377Z,1002.4
2018-03-31T10:01:16.380Z,1002.35
2018-03-31T10:02:16.385Z,1002.37
2018-03-31T10:03:16.371Z,1002.41
2018-03-31T10:04:16.380Z,1002.43
2018-03-31T10:05:16.380Z,1002.38
2018-03-31T10:06:16.435Z,1002.37
2018-03-31T10:07:16.376Z,1002.37
2018-03-31T10:08:16.389Z,1002.4
2018-03-31T10:09:16.376Z,1002.42
2018-03-31T10:10:16.369Z,1002.42
2018-03-31T10:11:16.370Z,1002.4
2018-03-31T10:12:16.377Z,1002.42
2018-03-31T10:13:16.378Z,1002.4
2018-03-31T10:14:16.373Z,1002.43
2018-03-31T10:15:16.378Z,1002.43
2018-03-31T10:16:16.372Z,1002.44
2018-03-31T10:17:16.371Z,1002.42
2018-03-31T10:18:16.408Z,1002.46
2018-03-31T10:19:16.384Z,1002.44
2018-03-31T10:20:16.371Z,1002.44
2018-03-31T10:21:16.374Z,1002.42
2018-03-31T10:22:16.465Z,1002.44
2018-03-31T10:23:16.384Z,1002.43
2018-03-31T10:24:16.367Z,1002.41
2018-03-31T10:25:16.385Z,1002.4
2018-03-31T10:26:16.365Z,1002.42
2018-03-31T10:27:16.361Z,1002.36
2018-03-31T10:28:16.380Z,1002.39
2018-03-31T10:29:16.458Z,1002.39
2018-03-31T10:30:16.361Z,1002.38
2018-03-31T10:31:16.360Z,1002.37
2018-03-31T10:32:16.361Z,1002.4
2018-03-31T10:33:16.490Z,1002.43
2018-03-31T10:34:16.360Z,1002.41
2018-03-31T10:35:16.469Z,1002.45
2018-03-31T10:36:16.360Z,1002.37
2018-03-31T10:37:16.408Z,1002.36
2018-03-31T10:38:16.375Z,1002.32
2018-03-31T10:39:16.380Z,1002.29
2018-03-31T10:40:16.356Z,1002.33
2018-03-31T10:41:16.363Z,1002.29
2018-03-31T10:42:16.353Z,1002.25
2018-03-31T10:43:16.380Z,1002.29
2018-03-31T10:44:16.353Z,1002.29
2018-03-31T10:45:16.360Z,1002.26
2018-03-31T10:46:16.353Z,1002.27
2018-03-31T10:47:16.383Z,1002.27
2018-03-31T10:48:16.351Z,1002.27
2018-03-31T10:49:16.361Z,1002.29
2018-03-31T10:50:16.357Z,1002.24
2018-03-31T10:51:16.349Z,1002.23
2018-03-31T10:52:16.370Z,1002.21
2018-03-31T10:53:16.351Z,1002.21
2018-03-31T10:54:16.349Z,1002.16
2018-03-31T10:55:16.342Z,1002.18
2018-03-31T10:56:16.373Z,1002.16
2018-03-31T10:57:16.355Z,1002.14
2018-03-31T10:58:16.372Z,1002.11
2018-03-31T10:59:16.351Z,1002.1
2018-03-31T11:00:16.432Z,1002.16
2018-03-31T11:01:16.344Z,1002.13
2018-03-31T11:02:16.360Z,1002.2
2018-03-31T11:03:16.383Z,1002.16
2018-03-31T11:04:16.350Z,1002.19
2018-03-31T11:05:16.341Z,1002.15
2018-03-31T11:06:16.350Z,1002.16
2018-03-31T11:07:16.343Z,1002.19
2018-03-31T11:08:16.433Z,1002.18
2018-03-31T11:09:16.341Z,1002.17
2018-03-31T11:10:16.366Z,1002.19
2018-03-31T11:11:16.332Z,1002.19
2018-03-31T11:12:16.339Z,1002.17
2018-03-31T11:13:16.329Z,1002.18
2018-03-31T11:14:16.336Z,1002.22
2018-03-31T11:15:16.347Z,1002.23
2018-03-31T11:16:16.332Z,1002.22
2018-03-31T11:17:16.396Z,1002.21
2018-03-31T11:18:16.335Z,1002.26
2018-03-31T11:19:16.330Z,1002.21
2018-03-31T11:20:16.334Z,1002.2
2018-03-31T11:21:16.339Z,1002.23
2018-03-31T11:22:16.347Z,1002.26
2018-03-31T11:23:16.333Z,1002.21
2018-03-31T11:24:16.334Z,1002.23
2018-03-31T11:25:16.326Z,1002.23
2018-03-31T11:26:16.336Z,1002.23
2018-03-31T11:27:16.351Z,1002.18
2018-03-31T11:28:16.328Z,1002.2
2018-03-31T11:29:16.335Z,1002.27
2018-03-31T11:30:16.328Z,1002.23
2018-03-31T11:31:16.334Z,1002.26
2018-03-31T11:32:16.397Z,1002.23
2018-03-31T11:33:16.367Z,1002.24
2018-03-31T11:34:16.322Z,1002.22
2018-03-31T11:35:16.320Z,1002.22
2018-03-31T11:36:16.384Z,1002.24
2018-03-31T11:37:16.327Z,1002.16
2018-03-31T11:38:16.345Z,1002.21
2018-03-31T11:39:16.374Z,1002.2
2018-03-31T11:40:16.359Z,1002.15
2018-03-31T11:41:16.349Z,1002.19
2018-03-31T11:42:16.372Z,1002.16
2018-03-31T11:43:16.317Z,1002.1
2018-03-31T11:44:16.324Z,1002.11
2018-03-31T11:45:16.321Z,1002.11
2018-03-31T11:46:16.313Z,1002.09
2018-03-31T11:47:16.317Z,1002.07
2018-03-31T11:48:16.331Z,1002.06
2018-03-31T11:49:16.321Z,1002.08
2018-03-31T11:50:16.318Z,1002.1
2018-03-31T11:51:16.316Z,1002.1
2018-03-31T11:52:16.330Z,1002.06
2018-03-31T11:53:16.315Z,1002.09
2018-03-31T11:54:16.313Z,1002.03
2018-03-31T11:55:16.310Z,1001.99
2018-03-31T11:56:16.315Z,1002.08
2018-03-31T11:57:16.312Z,1001.99
2018-03-31T11:58:16.303Z,1002.05
2018-03-31T11:59:16.337Z,1002.09
2018-03-31T12:00:16.313Z,1002.04
2018-03-31T12:01:16.343Z,1002.03
2018-03-31T12:02:16.367Z,1002.06
2018-03-31T12:03:16.307Z,1002.05
2018-03-31T12:04:16.334Z,1002.06
2018-03-31T12:05:16.316Z,1002.07
2018-03-31T12:06:16.309Z,1002.03
2018-03-31T12:07:16.316Z,1002.02
2018-03-31T12:08:16.306Z,1001.99
2018-03-31T12:09:16.313Z,1001.97